createdAt,value
2022-08-16T00:03:00.835Z,8.50
2022-08-16T00:06:04.795Z,8.13
2022-08-16T00:09:10.737Z,10.00
2022-08-16T00:12:17.759Z,10.68
2022-08-16T00:15:51.904Z,10.32
2022-08-16T00:18:50.365Z,8.48
2022-08-16T00:22:01.517Z,10.67
2022-08-16T00:25:07.748Z,11.13
2022-08-16T00:28:15.847Z,9.35
2022-08-16T00:31:19.103Z,11.55
2022-08-16T00:34:44.167Z,10.10
2022-08-16T00:37:58.397Z,9.00
2022-08-16T00:41:03.092Z,13.32
2022-08-16T00:44:11.802Z,9.27
2022-08-16T00:47:20.284Z,7.03
2022-08-16T00:50:36.499Z,11.73
2022-08-16T00:53:40.037Z,10.80
2022-08-16T00:56:58.075Z,9.27
2022-08-16T01:00:08.484Z,8.98
2022-08-16T01:03:16.564Z,7.70
2022-08-16T01:06:48.558Z,7.60
2022-08-16T01:09:52.846Z,6.05
2022-08-16T01:12:57.803Z,8.85
2022-08-16T01:16:10.624Z,8.13
2022-08-16T01:19:23.127Z,7.40
2022-08-16T01:22:48.592Z,8.60
2022-08-16T01:25:59.879Z,7.93
2022-08-16T01:29:57.234Z,10.43
2022-08-16T01:33:01.939Z,9.77
2022-08-16T01:36:11.905Z,9.57
2022-08-16T01:39:18.425Z,7.22
2022-08-16T01:42:27.367Z,7.88
2022-08-16T01:45:40.862Z,8.13
2022-08-16T01:48:46.247Z,5.68
2022-08-16T01:51:58.757Z,10.15
2022-08-16T01:55:03.020Z,9.65
2022-08-16T01:58:07.738Z,6.90
2022-08-16T02:01:15.469Z,10.07
2022-08-16T02:04:49.028Z,8.93
2022-08-16T02:07:46.581Z,10.65
2022-08-16T02:10:56.093Z,8.57
2022-08-16T02:14:00.750Z,10.32
2022-08-16T02:17:11.614Z,10.27
2022-08-16T02:20:16.535Z,10.90
2022-08-16T02:23:19.748Z,6.78
2022-08-16T02:26:23.183Z,12.97
2022-08-16T02:29:32.064Z,10.93
2022-08-16T02:32:49.714Z,10.85
2022-08-16T02:35:59.954Z,10.57
2022-08-16T02:39:06.952Z,9.82
2022-08-16T02:42:10.150Z,10.23
2022-08-16T02:45:18.548Z,9.38
2022-08-16T02:48:29.825Z,10.82
2022-08-16T02:51:35.770Z,11.40
2022-08-16T02:54:39.638Z,7.00
2022-08-16T02:57:54.540Z,11.48
2022-08-16T03:00:59.869Z,9.38
2022-08-16T03:04:46.454Z,8.48
2022-08-16T03:07:29.904Z,8.85
2022-08-16T03:10:40.716Z,9.85
2022-08-16T03:13:43.966Z,9.98
2022-08-16T03:16:58.634Z,10.15
2022-08-16T03:20:05.399Z,11.05
2022-08-16T03:23:09.614Z,9.95
2022-08-16T03:26:13.642Z,13.60
2022-08-16T03:32:21.367Z,9.95
2022-08-16T03:35:32.820Z,14.27
2022-08-16T03:38:37.568Z,18.70
2022-08-16T03:41:50.289Z,13.02
2022-08-16T03:45:03.295Z,11.63
2022-08-16T03:48:10.692Z,10.55
2022-08-16T03:51:25.351Z,13.30
2022-08-16T03:54:28.780Z,12.57
2022-08-16T03:57:36.515Z,13.10
2022-08-16T04:00:41.297Z,14.23
2022-08-16T04:03:46.334Z,12.95
2022-08-16T04:06:49.656Z,12.43
2022-08-16T04:09:54.380Z,14.00
2022-08-16T04:13:04.687Z,16.38
2022-08-16T04:16:09.408Z,16.65
2022-08-16T04:19:32.821Z,12.07
2022-08-16T04:22:37.223Z,13.48
2022-08-16T04:25:43.672Z,18.90
2022-08-16T04:28:56.738Z,16.70
2022-08-16T04:32:13.848Z,15.75
2022-08-16T04:35:23.227Z,16.77
2022-08-16T04:38:27.505Z,17.90
2022-08-16T04:41:37.467Z,12.82
2022-08-16T04:44:54.647Z,15.18
2022-08-16T04:47:59.427Z,12.88
2022-08-16T04:51:11.612Z,10.32
2022-08-16T04:54:19.519Z,13.32
2022-08-16T04:57:22.820Z,9.73
2022-08-16T05:00:34.193Z,11.02
2022-08-16T05:03:41.862Z,11.25
2022-08-16T05:07:02.672Z,11.93
2022-08-16T05:10:19.806Z,10.38
2022-08-16T05:13:41.003Z,8.98
2022-08-16T05:16:45.302Z,10.93
2022-08-16T05:19:57.988Z,8.05
2022-08-16T05:23:03.378Z,7.05
2022-08-16T05:26:19.789Z,8.75
2022-08-16T05:29:24.834Z,7.20
2022-08-16T05:32:47.602Z,9.15
2022-08-16T05:39:00.573Z,6.28
2022-08-16T05:42:06.414Z,6.18
2022-08-16T05:45:10.610Z,6.90
2022-08-16T05:48:14.172Z,7.45
2022-08-16T05:51:35.320Z,7.65
2022-08-16T05:54:47.531Z,6.75
2022-08-16T05:57:52.596Z,6.32
2022-08-16T06:00:57.240Z,6.97
2022-08-16T06:04:00.558Z,8.15
2022-08-16T06:10:32.363Z,6.90
2022-08-16T06:13:37.649Z,7.68
2022-08-16T06:16:50.544Z,7.28
2022-08-16T06:19:54.379Z,6.05
2022-08-16T06:23:03.889Z,8.52
2022-08-16T06:26:16.232Z,6.07
2022-08-16T06:29:21.888Z,7.60
2022-08-16T06:32:27.520Z,6.60
2022-08-16T06:35:40.140Z,6.07
2022-08-16T06:38:52.266Z,6.65
2022-08-16T06:42:01.687Z,8.38
2022-08-16T06:45:06.501Z,7.22
2022-08-16T06:48:10.409Z,7.85
2022-08-16T06:57:23.461Z,7.97
2022-08-16T07:00:26.934Z,6.30
2022-08-16T07:03:32.597Z,6.20
2022-08-16T07:06:36.046Z,6.32
2022-08-16T07:09:40.556Z,6.57
2022-08-16T07:13:03.888Z,7.78
2022-08-16T07:16:16.685Z,6.93
2022-08-16T07:19:33.468Z,7.85
2022-08-16T07:22:52.568Z,6.82
2022-08-16T07:26:02.506Z,6.88
2022-08-16T07:29:07.250Z,6.85
2022-08-16T07:32:11.721Z,7.75
2022-08-16T07:35:14.964Z,11.98
2022-08-16T07:38:20.069Z,13.48
2022-08-16T07:41:35.747Z,8.60
2022-08-16T07:47:54.052Z,7.15
2022-08-16T07:54:09.727Z,7.30
2022-08-16T07:57:13.843Z,7.68
2022-08-16T08:00:19.448Z,8.48
2022-08-16T08:03:23.228Z,8.25
2022-08-16T08:06:40.291Z,7.38
2022-08-16T08:09:43.933Z,11.27
2022-08-16T08:12:49.927Z,9.85
2022-08-16T08:15:54.934Z,8.70
2022-08-16T08:19:01.094Z,12.27
2022-08-16T08:22:06.533Z,11.38
2022-08-16T08:28:17.151Z,10.95
2022-08-16T08:31:21.955Z,10.15
2022-08-16T08:34:25.774Z,12.63
2022-08-16T08:40:52.097Z,12.57
2022-08-16T08:43:56.184Z,11.82
2022-08-16T08:47:07.908Z,11.65
2022-08-16T08:50:32.041Z,18.85
2022-08-16T08:53:36.118Z,12.43
2022-08-16T08:59:49.524Z,12.32
2022-08-16T09:02:58.813Z,9.80
2022-08-16T09:06:02.754Z,13.25
2022-08-16T09:09:09.495Z,9.18
2022-08-16T09:12:37.020Z,12.98
2022-08-16T09:15:41.046Z,9.57
2022-08-16T09:21:58.284Z,11.07
2022-08-16T09:25:10.931Z,14.60
2022-08-16T09:29:13.643Z,9.98
2022-08-16T09:31:41.283Z,17.42
2022-08-16T09:34:47.118Z,13.30
2022-08-16T09:38:01.054Z,14.77
2022-08-16T09:41:14.718Z,13.25
2022-08-16T09:45:09.622Z,11.88
2022-08-16T09:47:56.590Z,23.20
2022-08-16T09:51:02.926Z,11.82
2022-08-16T09:54:09.632Z,14.02
2022-08-16T09:57:13.734Z,11.10
2022-08-16T10:04:02.727Z,11.68
2022-08-16T10:07:15.527Z,11.35
2022-08-16T10:10:30.505Z,11.00
2022-08-16T10:13:34.312Z,12.68
2022-08-16T10:16:38.949Z,14.25
2022-08-16T10:19:43.328Z,12.43
2022-08-16T10:22:50.559Z,10.15
2022-08-16T10:27:03.659Z,11.40
2022-08-16T10:29:25.650Z,13.13
2022-08-16T10:32:48.963Z,10.98
2022-08-16T10:35:54.488Z,10.05
2022-08-16T10:38:59.379Z,11.00
2022-08-16T10:42:02.559Z,11.63
2022-08-16T10:45:07.669Z,13.15
2022-08-16T10:48:28.201Z,14.68
2022-08-16T10:51:34.454Z,16.98
2022-08-16T10:54:59.068Z,20.45
2022-08-16T10:58:11.628Z,18.42
2022-08-16T11:01:43.368Z,16.90
2022-08-16T11:08:05.393Z,14.27
2022-08-16T11:11:19.206Z,17.67
2022-08-16T11:14:24.793Z,13.63
2022-08-16T11:17:28.405Z,11.48
2022-08-16T11:20:41.676Z,8.32
2022-08-16T11:23:56.776Z,11.48
2022-08-16T11:27:20.133Z,8.90
2022-08-16T11:30:37.754Z,9.13
2022-08-16T11:33:58.115Z,10.57
2022-08-16T11:37:02.960Z,11.68
2022-08-16T11:40:10.789Z,14.68
2022-08-16T11:43:20.249Z,11.93
2022-08-16T11:46:45.380Z,11.65
2022-08-16T11:49:50.053Z,11.93
2022-08-16T11:52:53.430Z,13.75
2022-08-16T11:55:58.325Z,10.23
2022-08-16T11:59:04.826Z,12.13
2022-08-16T12:02:32.480Z,8.52
2022-08-16T12:05:33.372Z,8.95
2022-08-16T12:08:37.242Z,9.45
2022-08-16T12:11:40.739Z,10.52
2022-08-16T12:14:48.598Z,9.60
2022-08-16T12:17:56.126Z,11.20
2022-08-16T12:21:00.735Z,9.85
2022-08-16T12:24:07.868Z,10.73
2022-08-16T12:27:11.300Z,10.40
2022-08-16T12:33:44.443Z,11.82
2022-08-16T12:36:48.416Z,11.60
2022-08-16T12:39:52.249Z,9.75
2022-08-16T12:42:59.754Z,10.98
2022-08-16T12:46:05.587Z,9.70
2022-08-16T12:49:11.490Z,10.85
2022-08-16T12:52:32.907Z,10.23
2022-08-16T12:55:41.905Z,11.32
2022-08-16T12:58:51.335Z,15.85
2022-08-16T13:01:59.325Z,11.35
2022-08-16T13:05:03.555Z,10.07
2022-08-16T13:08:07.209Z,10.50
2022-08-16T13:11:33.413Z,13.20
2022-08-16T13:14:41.358Z,12.07
2022-08-16T13:17:46.458Z,12.15
2022-08-16T13:20:53.503Z,8.60
2022-08-16T13:23:56.896Z,9.43
2022-08-16T13:27:01.973Z,12.18
2022-08-16T13:30:11.379Z,12.85
2022-08-16T13:33:36.998Z,9.70
2022-08-16T13:36:49.573Z,8.77
2022-08-16T13:39:53.322Z,10.35
2022-08-16T13:42:56.673Z,13.80
2022-08-16T13:46:04.283Z,11.32
2022-08-16T13:49:09.406Z,11.82
2022-08-16T13:52:13.250Z,11.18
2022-08-16T13:55:17.734Z,15.82
2022-08-16T13:58:35.167Z,9.10
2022-08-16T14:01:41.241Z,8.13
2022-08-16T14:04:47.125Z,9.63
2022-08-16T14:08:06.470Z,10.35
2022-08-16T14:11:14.438Z,13.57
2022-08-16T14:14:17.979Z,11.25
2022-08-16T14:17:23.046Z,8.70
2022-08-16T14:20:28.135Z,8.73
2022-08-16T14:23:31.684Z,7.47
2022-08-16T14:26:36.441Z,8.30
2022-08-16T14:29:39.895Z,7.68
2022-08-16T14:32:44.745Z,8.30
2022-08-16T14:35:54.790Z,7.70
2022-08-16T14:38:59.037Z,9.80
2022-08-16T14:42:08.545Z,6.00
2022-08-16T14:45:17.141Z,7.53
2022-08-16T14:48:26.092Z,7.30
2022-08-16T14:51:31.369Z,7.60
2022-08-16T14:54:34.870Z,7.30
2022-08-16T14:57:38.877Z,6.13
2022-08-16T15:00:42.996Z,7.72
2022-08-16T15:03:46.360Z,5.75
2022-08-16T15:06:54.529Z,7.90
2022-08-16T15:10:00.765Z,6.38
2022-08-16T15:13:09.532Z,5.60
2022-08-16T15:16:13.054Z,4.75
2022-08-16T15:19:17.287Z,5.22
2022-08-16T15:22:30.615Z,6.38
2022-08-16T15:28:44.897Z,3.92
2022-08-16T15:31:48.890Z,6.15
2022-08-16T15:35:06.851Z,5.75
2022-08-16T15:38:55.028Z,4.45
2022-08-16T15:42:01.104Z,4.63
2022-08-16T15:45:11.487Z,8.15
2022-08-16T15:48:17.195Z,4.18
2022-08-16T15:51:20.946Z,6.60
2022-08-16T15:54:32.708Z,5.15
2022-08-16T15:57:51.155Z,3.75
2022-08-16T16:00:55.997Z,6.85
2022-08-16T16:04:00.052Z,11.93
2022-08-16T16:07:03.897Z,3.95
2022-08-16T16:10:13.142Z,7.10
2022-08-16T16:13:17.362Z,4.80
2022-08-16T16:16:22.225Z,9.48
2022-08-16T16:19:25.477Z,5.28
2022-08-16T16:22:29.990Z,4.05
2022-08-16T16:25:34.798Z,3.60
2022-08-16T16:29:06.402Z,4.00
2022-08-16T16:32:05.872Z,4.72
2022-08-16T16:35:10.696Z,7.53
2022-08-16T16:38:15.464Z,4.07
2022-08-16T16:41:24.529Z,6.95
2022-08-16T16:44:33.636Z,3.67
2022-08-16T16:47:48.348Z,4.63
2022-08-16T16:50:52.073Z,4.45
2022-08-16T16:53:56.969Z,6.35
2022-08-16T16:57:02.129Z,4.05
2022-08-16T17:00:37.742Z,4.40
2022-08-16T17:03:31.209Z,4.43
2022-08-16T17:06:37.874Z,6.35
2022-08-16T17:09:45.637Z,6.97
2022-08-16T17:12:51.260Z,5.53
2022-08-16T17:16:00.228Z,5.80
2022-08-16T17:22:33.052Z,5.93
2022-08-16T17:25:36.967Z,5.53
2022-08-16T17:28:59.951Z,4.47
2022-08-16T17:32:33.563Z,4.88
2022-08-16T17:35:40.180Z,6.18
2022-08-16T17:38:45.266Z,6.70
2022-08-16T17:39:26.515Z,6.55
2022-08-16T17:41:49.337Z,5.45
2022-08-16T17:47:58.321Z,9.70
2022-08-16T17:51:02.155Z,5.00
2022-08-16T17:54:06.659Z,8.45
2022-08-16T17:57:09.949Z,5.68
2022-08-16T18:00:20.222Z,8.23
2022-08-16T18:04:02.377Z,6.22
2022-08-16T18:06:54.103Z,9.13
2022-08-16T18:09:57.260Z,7.22
2022-08-16T18:16:07.273Z,6.35
2022-08-16T18:19:11.125Z,6.60
2022-08-16T18:25:30.305Z,6.30
2022-08-16T18:28:37.823Z,8.88
2022-08-16T18:31:43.274Z,7.53
2022-08-16T18:34:46.765Z,6.90
2022-08-16T18:37:50.939Z,6.38
2022-08-16T18:40:54.375Z,8.93
2022-08-16T18:44:24.933Z,7.90
2022-08-16T18:47:22.447Z,7.33
2022-08-16T18:50:26.283Z,5.63
2022-08-16T18:56:56.073Z,6.47
2022-08-16T18:59:56.489Z,6.13
2022-08-16T19:03:08.230Z,8.60
2022-08-16T19:06:15.328Z,6.63
2022-08-16T19:09:18.687Z,6.60
2022-08-16T19:12:37.970Z,5.78
2022-08-16T19:15:47.317Z,7.63
2022-08-16T19:18:52.129Z,6.07
2022-08-16T19:21:55.694Z,9.98
2022-08-16T19:24:59.450Z,7.72
2022-08-16T19:28:02.726Z,6.93
2022-08-16T19:31:14.040Z,6.53
2022-08-16T19:34:18.593Z,6.78
2022-08-16T19:37:22.579Z,7.18
2022-08-16T19:40:37.534Z,8.85
2022-08-16T19:43:41.926Z,7.30
2022-08-16T19:46:46.508Z,8.45
2022-08-16T19:49:51.917Z,6.45
2022-08-16T19:53:02.200Z,10.20
2022-08-16T19:56:16.427Z,6.95
2022-08-16T19:59:21.503Z,10.38
2022-08-16T20:02:35.806Z,8.30
2022-08-16T20:05:44.076Z,8.50
2022-08-16T20:08:47.747Z,7.50
2022-08-16T20:11:53.810Z,8.23
2022-08-16T20:14:57.219Z,8.80
2022-08-16T20:18:00.899Z,8.00
2022-08-16T20:21:06.769Z,9.43
2022-08-16T20:24:32.907Z,10.70
2022-08-16T20:27:33.657Z,12.23
2022-08-16T20:30:36.966Z,7.90
2022-08-16T20:33:40.482Z,8.35
2022-08-16T20:36:45.604Z,8.18
2022-08-16T20:39:52.251Z,11.48
2022-08-16T20:43:17.416Z,8.00
2022-08-16T20:46:21.097Z,8.18
2022-08-16T20:49:24.739Z,8.38
2022-08-16T20:52:29.971Z,7.43
2022-08-16T20:55:35.997Z,10.70
2022-08-16T20:58:39.680Z,7.65
2022-08-16T21:01:46.689Z,7.00
2022-08-16T21:04:54.633Z,9.30
2022-08-16T21:11:05.739Z,7.95
2022-08-16T21:14:10.870Z,8.55
2022-08-16T21:17:15.992Z,8.15
2022-08-16T21:20:19.669Z,7.95
2022-08-16T21:23:24.900Z,8.93
2022-08-16T21:26:28.371Z,9.80
2022-08-16T21:32:46.613Z,15.10
2022-08-16T21:35:53.569Z,11.75
2022-08-16T21:38:58.209Z,8.43
2022-08-16T21:42:02.015Z,7.68
2022-08-16T21:45:06.899Z,10.13
2022-08-16T21:48:10.845Z,10.38
2022-08-16T21:54:20.754Z,10.23
2022-08-16T21:57:24.019Z,10.77
2022-08-16T22:00:28.136Z,13.05
2022-08-16T22:03:33.133Z,12.15
2022-08-16T22:06:37.089Z,8.88
2022-08-16T22:09:41.724Z,9.60
2022-08-16T22:12:46.004Z,11.25
2022-08-16T22:15:51.961Z,8.90
2022-08-16T22:18:55.576Z,9.05
2022-08-16T22:22:01.280Z,11.02
2022-08-16T22:25:06.827Z,11.73
2022-08-16T22:28:11.481Z,9.73
2022-08-16T22:31:16.673Z,10.30
2022-08-16T22:34:20.325Z,8.95
2022-08-16T22:37:23.592Z,11.43
2022-08-16T22:40:28.277Z,10.30
2022-08-16T22:43:32.641Z,9.05
2022-08-16T22:46:37.600Z,9.77
2022-08-16T22:49:40.826Z,10.45
2022-08-16T22:52:56.298Z,8.60
2022-08-16T22:56:02.286Z,9.80
2022-08-16T22:59:05.690Z,12.65
2022-08-16T23:02:10.493Z,10.18
2022-08-16T23:05:13.676Z,14.38
2022-08-16T23:08:38.554Z,11.87
2022-08-16T23:11:44.931Z,11.68
2022-08-16T23:14:48.179Z,10.23
2022-08-16T23:17:58.853Z,10.15
2022-08-16T23:21:03.772Z,12.07
2022-08-16T23:24:08.820Z,13.10
2022-08-16T23:27:14.000Z,9.80
2022-08-16T23:30:19.505Z,11.05
2022-08-16T23:33:25.157Z,10.38
2022-08-16T23:36:28.471Z,8.80
2022-08-16T23:39:31.764Z,11.23
2022-08-16T23:42:52.615Z,10.20
2022-08-16T23:46:00.578Z,10.32
2022-08-16T23:49:56.774Z,11.05
2022-08-16T23:52:45.328Z,10.35
2022-08-16T23:55:55.498Z,11.32
2022-08-16T23:59:02.259Z,8.90
